Portada
METAR-TAF:

METAR-TAF

Aeroports :

Wuhan, Xina

latitud: 30-37N, longitud: 114-08E, altitud: 23 m

Observació

L'informe es va fer fa 27 minuts, a les 15:00 UTC
Vent 6 kt del Est
Temperatura 16°C
Humitat 59%
Pressió 1021 hPa
Visibilitat: 7000 m

METAR: ZHHH 241500Z 08003MPS 7000 NSC 16/08 Q1021 NOSIG

Hora: 23:27 (15:27 UTC)

Pronòstic

L'informe es va fer fa 6 hores i 23 minuts, a les 09:04 UTC
Pronòstic vàlid del 24 a les 12 UTC al 25 a les 12 UTC
Vent 6 kt del Est
Visibilitat: 6000 m

TAF: ZHHH 240904Z 2412/2512 10003MPS 6000 NSC TX19/2507Z TN13/2422Z

Observacions i pronòstics meteorològics de més de 4000 aeroports (METAR i TAF).

Les estacions disponibles són els punts grocs i vermells al mapa.

Posi el ratolí al punt desitjat per veure el nom de l'estació.

Feu clic per veure les observacions i els pronòstics meteorològics.

Per canviar el mapa: feu clic els botons verds amb una creu de color negre per apropar; al botó verd amb un guió per allunyar la imatge; o en les fletxes verdes per a mapes adjacents.


METAR-TAF: